Time;durP1;ratioP1;P1;durP2;ratioP2;P2;SDS_P1;SDS_P2;PMS_P1;PMS_P2;Temp;Humidity;BMP_temperature;BMP_pressure;BME280_temperature;BME280_humidity;BME280_pressure;Samples;Min_cycle;Max_cycle;Signal;HPM_P1;HPM_P2
2022/08/30 00:01:05;;;;;;;8.07;7.27;;;19.50;90.90;;;;;;6248696;23;20421;-42
2022/08/30 00:03:35;;;;;;;9.23;7.80;;;19.50;91.10;;;;;;6247771;23;20642;-45
2022/08/30 00:06:02;;;;;;;8.20;7.37;;;19.50;91.10;;;;;;6249362;23;20451;-45
2022/08/30 00:08:28;;;;;;;9.67;8.30;;;19.50;91.20;;;;;;6248830;23;20364;-43
2022/08/30 00:10:54;;;;;;;7.33;6.63;;;19.50;91.30;;;;;;6249817;23;20413;-45
2022/08/30 00:13:20;;;;;;;8.20;7.40;;;19.50;91.40;;;;;;6249458;23;20357;-46
2022/08/30 00:15:47;;;;;;;7.53;6.93;;;19.40;91.50;;;;;;6249411;23;20387;-43
2022/08/30 00:18:14;;;;;;;7.80;7.10;;;19.40;91.70;;;;;;6249722;23;20764;-43
2022/08/30 00:20:40;;;;;;;8.47;7.63;;;19.40;91.80;;;;;;6249647;23;20395;-42
2022/08/30 00:23:06;;;;;;;8.70;7.80;;;19.30;91.80;;;;;;6248447;23;20680;-43
2022/08/30 00:25:32;;;;;;;7.40;6.80;;;19.30;92.00;;;;;;6249147;23;20457;-46
2022/08/30 00:27:57;;;;;;;9.27;8.07;;;19.30;92.10;;;;;;6249690;23;20197;-47
2022/08/30 00:30:23;;;;;;;7.93;7.07;;;19.30;92.20;;;;;;6249071;23;20638;-45
2022/08/30 00:32:48;;;;;;;7.80;7.10;;;19.20;92.40;;;;;;6249813;23;20206;-46
2022/08/30 00:35:17;;;;;;;9.10;8.30;;;19.20;92.60;;;;;;6248748;23;20254;-44
2022/08/30 00:37:43;;;;;;;8.90;8.00;;;19.10;92.70;;;;;;6249428;23;20156;-45
2022/08/30 00:40:10;;;;;;;8.83;8.03;;;19.10;93.00;;;;;;6248636;23;20378;-46
2022/08/30 00:42:37;;;;;;;8.73;7.93;;;19.00;93.10;;;;;;6248804;23;20358;-43
2022/08/30 00:45:19;;;;;;;8.47;7.67;;;18.90;93.20;;;;;;6248793;23;20385;-43
2022/08/30 00:47:45;;;;;;;9.03;8.10;;;18.90;93.40;;;;;;6249312;23;20362;-43
2022/08/30 00:50:12;;;;;;;7.97;7.17;;;18.80;93.60;;;;;;6248896;23;20789;-43
2022/08/30 00:52:40;;;;;;;7.90;7.20;;;18.80;93.70;;;;;;6249369;23;20265;-44
2022/08/30 00:55:07;;;;;;;8.70;7.97;;;18.80;93.80;;;;;;6247773;23;20357;-43
2022/08/30 00:57:34;;;;;;;8.90;8.10;;;18.70;94.00;;;;;;6249805;23;20473;-43
2022/08/30 01:00:00;;;;;;;8.57;7.77;;;18.60;94.20;;;;;;6248050;23;20634;-44
2022/08/30 01:02:29;;;;;;;9.10;8.40;;;18.60;94.40;;;;;;6248766;23;20423;-43
2022/08/30 01:04:55;;;;;;;9.77;8.87;;;18.60;94.60;;;;;;6249218;23;20791;-44
2022/08/30 01:07:21;;;;;;;9.13;8.33;;;18.60;94.80;;;;;;6247450;23;20417;-44
2022/08/30 01:09:46;;;;;;;8.57;7.63;;;18.60;94.90;;;;;;6249646;23;20646;-45
2022/08/30 01:12:13;;;;;;;9.57;8.27;;;18.50;94.90;;;;;;6250245;23;20152;-42
2022/08/30 01:14:39;;;;;;;9.17;8.37;;;18.50;95.00;;;;;;6249254;23;20208;-46
2022/08/30 01:17:05;;;;;;;8.90;7.87;;;18.50;95.00;;;;;;6247782;23;20769;-44
2022/08/30 01:19:46;;;;;;;8.77;7.87;;;18.50;95.20;;;;;;6248306;23;20363;-42
2022/08/30 01:22:31;;;;;;;9.80;8.80;;;18.50;95.40;;;;;;6248060;23;20444;-42
2022/08/30 01:24:58;;;;;;;8.30;7.53;;;18.50;95.40;;;;;;6247363;23;20353;-42
2022/08/30 01:27:26;;;;;;;8.20;7.50;;;18.40;95.30;;;;;;6249581;23;20397;-42
2022/08/30 01:29:52;;;;;;;9.40;8.60;;;18.30;95.30;;;;;;6248253;23;20633;-43
2022/08/30 01:32:23;;;;;;;8.40;7.60;;;18.40;95.40;;;;;;6249035;23;20770;-44
2022/08/30 01:34:49;;;;;;;8.30;7.60;;;18.30;95.30;;;;;;6248775;23;20516;-42
2022/08/30 01:37:23;;;;;;;8.50;7.80;;;18.20;95.60;;;;;;6247901;23;20436;-43
2022/08/30 01:39:48;;;;;;;8.13;7.43;;;18.20;95.70;;;;;;6247741;23;20412;-44
2022/08/30 01:42:16;;;;;;;8.80;8.00;;;18.20;95.90;;;;;;6248866;23;20379;-44
2022/08/30 01:44:43;;;;;;;8.67;7.87;;;18.20;95.90;;;;;;6248647;23;20214;-44
2022/08/30 01:47:09;;;;;;;8.87;8.00;;;18.10;95.80;;;;;;6249676;23;20432;-45
2022/08/30 01:49:34;;;;;;;8.90;8.20;;;18.10;95.60;;;;;;6248745;23;20345;-45
2022/08/30 01:52:00;;;;;;;9.13;8.23;;;18.10;95.80;;;;;;6249104;23;20398;-44
2022/08/30 01:54:26;;;;;;;7.93;7.23;;;18.00;95.70;;;;;;6249118;23;20168;-47
2022/08/30 01:56:51;;;;;;;9.10;8.23;;;18.00;95.90;;;;;;6249243;23;20167;-42
2022/08/30 01:59:17;;;;;;;8.60;7.43;;;18.00;96.00;;;;;;6248796;23;20427;-44
2022/08/30 02:01:43;;;;;;;9.40;8.47;;;18.00;96.00;;;;;;6249923;23;20185;-44
2022/08/30 02:04:10;;;;;;;12.77;8.27;;;17.90;96.10;;;;;;6248588;23;20549;-42
2022/08/30 02:06:37;;;;;;;8.63;7.83;;;17.90;96.10;;;;;;6248657;23;20218;-42
2022/08/30 02:09:03;;;;;;;8.60;7.83;;;17.90;96.00;;;;;;6248809;23;20359;-43
2022/08/30 02:11:29;;;;;;;8.97;8.17;;;17.90;96.20;;;;;;6249517;23;20438;-45
2022/08/30 02:13:55;;;;;;;8.93;8.13;;;18.00;96.20;;;;;;6248577;23;20359;-45
2022/08/30 02:16:22;;;;;;;7.63;7.03;;;18.00;96.30;;;;;;6247842;23;20163;-43
2022/08/30 02:18:49;;;;;;;8.90;8.00;;;17.90;96.30;;;;;;6248411;23;20390;-46
2022/08/30 02:21:15;;;;;;;8.20;7.50;;;17.90;96.30;;;;;;6248914;23;20442;-45
2022/08/30 02:23:41;;;;;;;8.43;7.67;;;17.90;96.30;;;;;;6247643;23;20403;-44
2022/08/30 02:26:08;;;;;;;8.47;7.67;;;17.90;96.60;;;;;;6245210;23;20192;-46
2022/08/30 02:28:33;;;;;;;8.10;6.90;;;17.80;96.60;;;;;;6247210;23;20356;-47
2022/08/30 02:30:59;;;;;;;9.47;8.57;;;17.80;96.70;;;;;;6246057;23;20394;-44
2022/08/30 02:33:25;;;;;;;8.83;8.13;;;17.80;96.70;;;;;;6248577;23;20392;-42
2022/08/30 02:35:51;;;;;;;8.80;7.90;;;17.80;96.70;;;;;;6247937;23;20444;-43
2022/08/30 02:38:16;;;;;;;10.23;9.23;;;17.70;96.70;;;;;;6248883;23;20136;-43
2022/08/30 02:40:43;;;;;;;8.90;8.10;;;17.70;96.70;;;;;;6250656;23;20162;-45
2022/08/30 02:43:10;;;;;;;9.30;8.50;;;17.70;96.80;;;;;;6249567;23;20164;-42
2022/08/30 02:45:37;;;;;;;8.53;7.83;;;17.70;97.00;;;;;;6250394;23;20429;-43
2022/08/30 02:48:03;;;;;;;9.93;8.23;;;17.70;97.10;;;;;;6250430;23;20372;-42
2022/08/30 02:50:30;;;;;;;8.60;7.87;;;17.70;97.10;;;;;;6251056;22;20411;-42
2022/08/30 02:52:55;;;;;;;9.87;8.87;;;17.60;97.10;;;;;;6250736;23;20654;-41
2022/08/30 02:55:22;;;;;;;9.07;8.17;;;17.60;97.10;;;;;;6250272;23;20384;-42
2022/08/30 02:57:47;;;;;;;8.00;7.30;;;17.60;97.20;;;;;;6251075;23;20198;-44
2022/08/30 03:00:16;;;;;;;9.37;8.47;;;17.60;97.30;;;;;;6249778;23;20353;-43
2022/08/30 03:02:42;;;;;;;9.23;8.43;;;17.60;97.40;;;;;;6250964;23;20151;-43
2022/08/30 03:05:09;;;;;;;9.90;9.10;;;17.60;97.50;;;;;;6249041;23;20649;-42
2022/08/30 03:07:35;;;;;;;10.60;9.70;;;17.50;97.30;;;;;;6250211;23;20148;-43
2022/08/30 03:10:01;;;;;;;9.17;8.27;;;17.50;97.40;;;;;;6249998;23;20865;-47
2022/08/30 03:12:26;;;;;;;9.80;8.70;;;17.50;97.60;;;;;;6250046;23;20553;-44
2022/08/30 03:14:52;;;;;;;9.03;8.23;;;17.50;97.60;;;;;;6250115;23;20145;-42
2022/08/30 03:17:18;;;;;;;9.47;8.50;;;17.50;97.70;;;;;;6248851;23;20148;-44
2022/08/30 03:19:44;;;;;;;9.60;8.70;;;17.50;97.70;;;;;;6249080;23;20362;-45
2022/08/30 03:22:10;;;;;;;9.23;8.43;;;17.50;97.60;;;;;;6248850;23;20175;-43
2022/08/30 03:24:36;;;;;;;9.73;8.83;;;17.50;97.70;;;;;;6249264;23;20362;-51
2022/08/30 03:27:02;;;;;;;9.10;8.20;;;17.40;97.70;;;;;;6248465;23;20832;-44
2022/08/30 03:29:28;;;;;;;9.30;8.47;;;17.40;97.70;;;;;;6248784;23;20357;-42
2022/08/30 03:31:55;;;;;;;10.90;8.47;;;17.40;97.80;;;;;;6246513;23;20441;-42
2022/08/30 03:34:22;;;;;;;8.40;7.67;;;17.30;97.80;;;;;;6248069;23;20236;-41
2022/08/30 03:36:48;;;;;;;8.83;8.00;;;17.30;97.90;;;;;;6248278;23;20365;-44
2022/08/30 03:39:14;;;;;;;9.37;8.50;;;17.30;97.90;;;;;;6248293;23;20421;-42
2022/08/30 03:41:39;;;;;;;9.23;8.33;;;17.30;97.80;;;;;;6249161;23;20365;-41
2022/08/30 03:44:05;;;;;;;8.80;8.00;;;17.30;97.90;;;;;;6249951;23;20228;-43
2022/08/30 03:46:30;;;;;;;9.40;8.50;;;17.20;97.80;;;;;;6247856;23;20213;-44
2022/08/30 03:48:56;;;;;;;9.40;8.50;;;17.20;97.90;;;;;;6247941;23;20223;-41
2022/08/30 03:51:22;;;;;;;8.73;8.03;;;17.20;98.10;;;;;;6247971;23;20399;-42
2022/08/30 03:53:48;;;;;;;9.70;8.70;;;17.10;98.10;;;;;;6246919;23;20195;-41
2022/08/30 03:56:14;;;;;;;9.13;8.40;;;17.20;98.40;;;;;;6247829;23;20390;-43
2022/08/30 03:58:40;;;;;;;9.03;8.33;;;17.10;98.30;;;;;;6246512;23;20155;-41
2022/08/30 04:01:06;;;;;;;9.27;8.40;;;17.10;98.20;;;;;;6246488;23;20364;-41
2022/08/30 04:03:32;;;;;;;10.30;9.40;;;17.10;98.30;;;;;;6246801;23;20166;-45
2022/08/30 04:05:57;;;;;;;8.20;7.50;;;17.10;98.30;;;;;;6246146;23;20463;-42
2022/08/30 04:08:24;;;;;;;9.77;8.87;;;17.10;98.30;;;;;;6247042;23;20162;-47
2022/08/30 04:10:52;;;;;;;8.80;8.00;;;17.10;98.30;;;;;;6247330;23;20663;-45
2022/08/30 04:13:17;;;;;;;8.70;7.90;;;17.10;98.30;;;;;;6246740;23;20386;-46
2022/08/30 04:15:43;;;;;;;8.60;7.87;;;17.10;98.20;;;;;;6248641;23;20390;-42
2022/08/30 04:18:09;;;;;;;9.70;8.90;;;17.10;98.20;;;;;;6247697;23;20183;-43
2022/08/30 04:20:34;;;;;;;9.53;7.87;;;17.10;98.40;;;;;;6247876;23;20279;-44
2022/08/30 04:23:01;;;;;;;10.40;9.40;;;17.10;98.50;;;;;;6247646;23;20159;-43
2022/08/30 04:25:27;;;;;;;9.43;8.53;;;17.00;98.50;;;;;;6247798;23;20242;-42
2022/08/30 04:27:52;;;;;;;9.90;9.00;;;17.00;98.50;;;;;;6247884;23;20489;-46
2022/08/30 04:30:18;;;;;;;9.60;8.77;;;17.00;98.50;;;;;;6247191;23;20765;-44
2022/08/30 04:32:44;;;;;;;8.97;8.10;;;17.00;98.50;;;;;;6248586;23;20151;-42
2022/08/30 04:35:11;;;;;;;9.57;8.67;;;17.00;98.70;;;;;;6247616;23;20202;-44
2022/08/30 04:37:38;;;;;;;9.43;8.57;;;17.00;98.60;;;;;;6249036;23;20383;-42
2022/08/30 04:40:05;;;;;;;9.83;8.90;;;17.00;98.40;;;;;;6247444;23;20689;-44
2022/08/30 04:42:33;;;;;;;9.20;8.30;;;17.10;98.20;;;;;;6246236;23;20393;-42
2022/08/30 04:45:02;;;;;;;9.20;8.30;;;17.00;98.20;;;;;;6246238;23;20661;-43
2022/08/30 04:47:27;;;;;;;9.00;8.17;;;17.00;98.30;;;;;;6247947;23;20837;-45
2022/08/30 04:49:53;;;;;;;9.03;8.23;;;17.00;98.50;;;;;;6247068;23;20382;-44
2022/08/30 04:52:19;;;;;;;8.80;7.93;;;17.10;98.50;;;;;;6245427;23;20132;-42
2022/08/30 04:54:45;;;;;;;9.10;8.30;;;17.10;98.50;;;;;;6247822;23;20451;-42
2022/08/30 04:57:10;;;;;;;9.90;8.90;;;17.10;98.30;;;;;;6246467;23;20225;-41
2022/08/30 04:59:37;;;;;;;9.30;8.40;;;17.10;98.30;;;;;;6246729;23;20408;-44
2022/08/30 05:02:03;;;;;;;10.20;8.17;;;17.20;98.20;;;;;;6247920;23;20433;-43
2022/08/30 05:04:29;;;;;;;10.20;9.20;;;17.20;98.20;;;;;;6247414;23;20378;-42
2022/08/30 05:06:55;;;;;;;11.90;9.13;;;17.30;98.10;;;;;;6246805;23;20461;-43
2022/08/30 05:09:21;;;;;;;9.50;8.67;;;17.30;98.10;;;;;;6246696;23;20687;-42
2022/08/30 05:11:47;;;;;;;9.47;8.57;;;17.40;98.00;;;;;;6246046;23;20596;-44
2022/08/30 05:14:12;;;;;;;9.43;8.63;;;17.40;97.80;;;;;;6248332;23;20165;-44
2022/08/30 05:16:40;;;;;;;9.93;9.03;;;17.40;97.80;;;;;;6246916;23;20419;-43
2022/08/30 05:19:06;;;;;;;9.73;8.83;;;17.40;97.90;;;;;;6246997;23;20257;-43
2022/08/30 05:21:32;;;;;;;9.50;8.50;;;17.50;98.00;;;;;;6247334;23;20474;-43
2022/08/30 05:23:59;;;;;;;9.37;8.57;;;17.50;98.00;;;;;;6248195;23;20400;-43
2022/08/30 05:26:28;;;;;;;8.93;8.03;;;17.60;97.80;;;;;;6247182;23;20181;-45
2022/08/30 05:28:54;;;;;;;9.37;8.57;;;17.70;97.80;;;;;;6247574;23;20364;-45
2022/08/30 05:31:23;;;;;;;10.27;9.27;;;17.80;97.70;;;;;;6247160;23;20383;-45
2022/08/30 05:33:50;;;;;;;10.20;9.20;;;17.80;97.60;;;;;;6246594;23;20815;-45
2022/08/30 05:36:17;;;;;;;10.90;9.90;;;17.80;97.60;;;;;;6246286;23;20681;-43
2022/08/30 05:38:43;;;;;;;9.67;8.77;;;17.70;97.50;;;;;;6245271;23;20444;-43
2022/08/30 05:41:09;;;;;;;9.87;9.03;;;17.80;97.60;;;;;;6244156;23;20357;-43
2022/08/30 05:43:35;;;;;;;10.43;9.53;;;17.80;97.60;;;;;;6245479;23;20384;-43
2022/08/30 05:46:05;;;;;;;10.63;9.73;;;17.80;97.40;;;;;;6246153;23;20410;-43
2022/08/30 05:48:31;;;;;;;9.40;8.40;;;17.80;97.50;;;;;;6246045;23;20167;-43
2022/08/30 05:51:11;;;;;;;11.80;10.50;;;17.80;97.70;;;;;;6244208;23;20349;-44
2022/08/30 05:53:38;;;;;;;10.80;9.73;;;17.70;97.90;;;;;;6242999;23;20362;-45
2022/08/30 05:56:07;;;;;;;11.07;10.03;;;17.70;98.20;;;;;;6242499;23;20472;-43
2022/08/30 05:58:33;;;;;;;10.80;9.30;;;17.70;98.30;;;;;;6243129;23;20459;-44
2022/08/30 06:00:59;;;;;;;10.17;9.27;;;17.70;98.30;;;;;;6242763;23;20360;-48
2022/08/30 06:03:25;;;;;;;10.77;9.67;;;17.70;98.40;;;;;;6245738;23;20354;-42
2022/08/30 06:05:52;;;;;;;9.87;8.87;;;17.90;98.20;;;;;;6244893;23;20193;-44
2022/08/30 06:08:17;;;;;;;9.87;8.87;;;18.00;98.00;;;;;;6243431;23;20351;-44
2022/08/30 06:10:44;;;;;;;10.50;9.47;;;18.20;97.90;;;;;;6245612;23;20742;-46
2022/08/30 06:13:10;;;;;;;11.70;10.60;;;18.30;97.60;;;;;;6246990;23;20150;-44
2022/08/30 06:15:36;;;;;;;10.33;9.43;;;18.50;97.50;;;;;;6245740;23;20373;-46
2022/08/30 06:18:02;;;;;;;10.63;9.73;;;18.70;97.20;;;;;;6249789;23;20154;-46
2022/08/30 06:20:28;;;;;;;10.20;9.30;;;18.90;96.90;;;;;;6250974;23;20421;-43
2022/08/30 06:22:54;;;;;;;11.27;10.13;;;19.10;96.70;;;;;;6250832;23;20664;-46
2022/08/30 06:25:19;;;;;;;10.43;9.43;;;19.20;96.00;;;;;;6249061;23;20173;-45
2022/08/30 06:27:45;;;;;;;10.30;9.33;;;19.30;95.70;;;;;;6248327;23;20594;-44
2022/08/30 06:30:11;;;;;;;12.93;11.73;;;19.50;95.50;;;;;;6246502;23;20132;-44
2022/08/30 06:32:37;;;;;;;11.33;10.23;;;19.70;95.20;;;;;;6247274;23;20157;-44
2022/08/30 06:35:05;;;;;;;11.27;10.27;;;19.80;94.90;;;;;;6245017;23;20466;-44
2022/08/30 06:37:31;;;;;;;11.03;9.93;;;19.90;94.50;;;;;;6244494;23;20499;-44
2022/08/30 06:39:58;;;;;;;10.57;9.67;;;20.00;94.50;;;;;;6245146;23;20387;-41
2022/08/30 06:42:29;;;;;;;9.30;8.40;;;20.20;94.30;;;;;;6245766;23;20744;-45
2022/08/30 06:44:55;;;;;;;10.80;9.70;;;20.40;94.20;;;;;;6244019;23;20420;-45
2022/08/30 06:47:20;;;;;;;9.97;8.93;;;20.60;93.90;;;;;;6247369;23;20431;-45
2022/08/30 06:49:46;;;;;;;11.07;10.07;;;20.70;93.80;;;;;;6246393;23;20130;-44
2022/08/30 06:52:11;;;;;;;10.80;9.77;;;20.90;93.60;;;;;;6247926;23;20608;-44
2022/08/30 06:54:37;;;;;;;11.70;9.63;;;21.10;93.00;;;;;;6248107;23;20224;-46
2022/08/30 06:57:03;;;;;;;9.87;8.97;;;21.30;92.70;;;;;;6248787;23;20154;-44
2022/08/30 06:59:30;;;;;;;13.00;10.40;;;21.50;92.40;;;;;;6248057;23;20382;-43
2022/08/30 07:01:56;;;;;;;9.73;8.83;;;21.60;92.10;;;;;;6249113;23;20164;-43
2022/08/30 07:04:23;;;;;;;9.20;8.40;;;21.80;91.90;;;;;;6248688;23;20367;-44
2022/08/30 07:06:49;;;;;;;10.40;9.50;;;21.90;91.80;;;;;;6248433;23;20875;-44
2022/08/30 07:09:14;;;;;;;10.00;9.00;;;22.10;91.30;;;;;;6247434;23;20422;-44
2022/08/30 07:11:41;;;;;;;10.23;9.23;;;22.10;91.10;;;;;;6248344;23;20195;-45
2022/08/30 07:14:07;;;;;;;9.67;8.80;;;22.20;91.20;;;;;;6248247;23;20173;-43
2022/08/30 07:16:33;;;;;;;9.50;8.57;;;22.40;91.10;;;;;;6248962;23;20391;-44
2022/08/30 07:19:00;;;;;;;9.10;8.20;;;22.70;90.30;;;;;;6247029;23;20136;-47
2022/08/30 07:21:27;;;;;;;9.00;8.10;;;23.00;89.80;;;;;;6248101;23;20789;-46
2022/08/30 07:23:56;;;;;;;9.03;8.23;;;23.40;89.30;;;;;;6247636;23;20370;-46
2022/08/30 07:26:27;;;;;;;9.27;8.47;;;23.70;89.20;;;;;;6246189;23;20512;-42
2022/08/30 07:28:53;;;;;;;9.83;8.73;;;24.10;87.30;;;;;;6247653;23;20443;-42
2022/08/30 07:31:20;;;;;;;8.87;7.97;;;24.50;84.90;;;;;;6247339;23;20792;-45
2022/08/30 07:33:45;;;;;;;8.87;7.50;;;24.70;83.80;;;;;;6248089;23;20457;-45
2022/08/30 07:36:12;;;;;;;8.57;7.77;;;24.80;83.80;;;;;;6248064;23;20483;-48
2022/08/30 07:38:38;;;;;;;10.13;8.90;;;25.10;83.50;;;;;;6245937;23;20596;-45
2022/08/30 07:41:05;;;;;;;7.80;7.20;;;25.30;83.10;;;;;;6246252;23;20462;-46
2022/08/30 07:43:35;;;;;;;9.43;8.63;;;25.50;82.70;;;;;;6245934;23;20144;-44
2022/08/30 07:46:06;;;;;;;9.37;8.23;;;25.50;81.80;;;;;;6246276;23;20425;-44
2022/08/30 07:48:32;;;;;;;8.90;8.10;;;25.60;79.60;;;;;;6220692;23;20461;-44
2022/08/30 07:50:58;;;;;;;8.27;7.53;;;25.50;79.30;;;;;;6247192;23;20361;-47
2022/08/30 07:53:23;;;;;;;8.03;7.43;;;25.60;80.10;;;;;;6246855;23;20394;-46
2022/08/30 07:55:49;;;;;;;9.20;8.33;;;25.60;78.10;;;;;;6247122;23;20672;-44
2022/08/30 07:58:15;;;;;;;8.60;7.90;;;25.70;76.20;;;;;;6247103;23;20156;-44
2022/08/30 08:00:41;;;;;;;9.70;8.77;;;25.80;75.60;;;;;;6244793;23;20144;-47
2022/08/30 08:03:08;;;;;;;9.07;8.37;;;25.70;74.70;;;;;;6244972;23;20154;-45
2022/08/30 08:05:42;;;;;;;9.17;8.27;;;25.60;76.00;;;;;;6245649;23;20948;-43
2022/08/30 08:08:09;;;;;;;8.10;7.43;;;25.50;76.50;;;;;;6243891;23;20495;-47
2022/08/30 08:10:39;;;;;;;9.03;8.13;;;25.60;77.20;;;;;;6240855;23;20412;-43
2022/08/30 08:13:05;;;;;;;8.90;8.20;;;25.70;76.70;;;;;;6242321;23;20773;-42
2022/08/30 08:15:30;;;;;;;9.13;8.33;;;25.60;76.60;;;;;;6241508;23;20362;-44
2022/08/30 08:17:56;;;;;;;9.13;8.07;;;25.60;77.10;;;;;;6241151;23;20153;-44
2022/08/30 08:20:22;;;;;;;9.63;8.73;;;25.40;77.30;;;;;;6240517;23;20403;-45
2022/08/30 08:22:48;;;;;;;9.00;8.30;;;25.30;78.30;;;;;;6246029;23;20399;-47
2022/08/30 08:25:14;;;;;;;9.53;8.60;;;25.30;78.40;;;;;;6243811;23;20131;-47
2022/08/30 08:27:40;;;;;;;9.27;8.47;;;25.50;77.70;;;;;;6245936;23;20387;-47
2022/08/30 08:30:06;;;;;;;9.30;8.50;;;25.70;76.40;;;;;;6243148;23;20450;-44
2022/08/30 08:32:32;;;;;;;9.23;8.43;;;25.90;76.50;;;;;;6245039;23;20161;-45
2022/08/30 08:34:58;;;;;;;9.97;8.70;;;26.00;76.00;;;;;;6244762;23;20435;-45
2022/08/30 08:37:23;;;;;;;8.90;8.10;;;26.40;77.20;;;;;;6243369;23;20410;-46
2022/08/30 08:39:51;;;;;;;12.63;8.60;;;26.90;75.90;;;;;;6245226;23;20211;-47
2022/08/30 08:42:44;;;;;;;9.07;8.27;;;27.30;72.50;;;;;;6243503;23;20559;-46
2022/08/30 08:45:18;;;;;;;8.20;7.40;;;27.40;73.20;;;;;;6230970;23;20402;-46
2022/08/30 08:48:23;;;;;;;9.10;8.20;;;27.70;73.00;;;;;;6243469;23;20384;-43
2022/08/30 08:53:34;;;;;;;9.37;8.57;;;28.80;66.00;;;;;;6244707;23;20376;-46
2022/08/30 08:56:03;;;;;;;9.07;8.17;;;28.90;65.40;;;;;;6247632;23;20726;-46
2022/08/30 08:58:51;;;;;;;8.43;7.63;;;28.90;62.70;;;;;;6244842;23;20360;-44
2022/08/30 09:01:19;;;;;;;9.47;8.00;;;28.70;64.20;;;;;;6247995;23;20371;-46
2022/08/30 09:03:44;;;;;;;9.10;8.30;;;28.80;66.80;;;;;;6248741;23;20357;-48
2022/08/30 09:06:39;;;;;;;8.90;8.10;;;29.20;64.80;;;;;;6247773;23;20861;-46
2022/08/30 09:09:05;;;;;;;8.70;7.90;;;29.50;60.00;;;;;;6246726;22;20943;-45
2022/08/30 09:11:36;;;;;;;8.23;7.53;;;29.50;61.50;;;;;;6246233;23;20359;-45
2022/08/30 09:14:04;;;;;;;8.60;7.77;;;29.90;60.80;;;;;;6243610;23;20150;-46
2022/08/30 09:16:50;;;;;;;8.97;8.07;;;30.00;60.30;;;;;;6218630;23;20428;-49
2022/08/30 09:19:48;;;;;;;9.00;8.20;;;30.30;58.30;;;;;;6245963;23;20378;-45
2022/08/30 09:22:24;;;;;;;9.83;8.33;;;30.60;57.60;;;;;;6244490;23;20387;-46
2022/08/30 09:24:53;;;;;;;8.57;7.90;;;30.80;57.30;;;;;;6245932;23;20654;-47
2022/08/30 09:27:26;;;;;;;8.03;7.30;;;30.90;55.20;;;;;;6244749;23;20512;-45
2022/08/30 09:29:56;;;;;;;8.97;8.17;;;30.90;56.00;;;;;;6245153;23;20438;-45
2022/08/30 09:32:32;;;;;;;8.03;7.30;;;31.20;53.70;;;;;;6242605;23;20411;-46
2022/08/30 09:34:58;;;;;;;8.80;8.03;;;31.50;54.40;;;;;;6242277;23;20423;-48
2022/08/30 09:37:51;;;;;;;8.90;8.00;;;31.60;52.70;;;;;;6243265;23;20366;-46
2022/08/30 09:40:25;;;;;;;8.00;7.30;;;31.40;52.50;;;;;;6237991;23;20469;-47
2022/08/30 09:43:08;;;;;;;7.90;7.20;;;31.40;53.10;;;;;;6242266;23;20540;-47
2022/08/30 09:45:41;;;;;;;8.40;7.70;;;31.80;53.60;;;;;;6246640;22;20524;-47
2022/08/30 09:48:25;;;;;;;21.53;9.83;;;32.30;51.90;;;;;;6247601;23;20626;-46
2022/08/30 09:51:09;;;;;;;12.93;8.10;;;32.90;50.50;;;;;;6244801;23;20330;-48
2022/08/30 09:53:56;;;;;;;7.53;6.93;;;33.20;49.40;;;;;;6248039;23;20440;-44
2022/08/30 09:56:46;;;;;;;12.73;8.03;;;33.30;47.80;;;;;;6247232;23;20449;-46
2022/08/30 09:59:50;;;;;;;9.20;8.40;;;33.20;48.70;;;;;;6246368;23;20350;-46
2022/08/30 10:02:50;;;;;;;8.33;7.17;;;33.20;48.10;;;;;;6248326;22;20433;-45
2022/08/30 10:05:31;;;;;;;8.47;7.77;;;33.30;47.90;;;;;;6247071;23;20448;-48
2022/08/30 10:08:21;;;;;;;7.60;7.03;;;33.20;46.60;;;;;;6244649;23;20612;-49
2022/08/30 10:10:51;;;;;;;9.17;8.30;;;32.90;47.20;;;;;;6243989;23;20698;-46
2022/08/30 10:13:46;;;;;;;8.70;7.90;;;32.60;47.60;;;;;;6241830;23;20324;-47
2022/08/30 10:16:21;;;;;;;8.30;7.43;;;32.60;47.20;;;;;;6241996;23;20805;-48
2022/08/30 10:19:05;;;;;;;8.43;7.73;;;32.60;47.80;;;;;;6240058;23;20569;-47
2022/08/30 10:21:44;;;;;;;8.23;7.40;;;32.90;48.10;;;;;;6243521;23;20655;-45
2022/08/30 10:24:13;;;;;;;7.63;7.03;;;32.90;46.40;;;;;;6243977;23;20364;-48
2022/08/30 10:26:52;;;;;;;7.63;6.80;;;32.80;47.20;;;;;;6243868;23;20452;-50
2022/08/30 10:29:27;;;;;;;6.70;6.20;;;33.10;46.70;;;;;;6243675;23;20349;-46
2022/08/30 10:31:55;;;;;;;8.10;7.37;;;33.80;46.30;;;;;;6243523;23;20379;-47
2022/08/30 10:34:33;;;;;;;7.70;7.00;;;34.60;45.70;;;;;;6246927;23;20788;-48
2022/08/30 10:37:03;;;;;;;7.10;6.60;;;34.90;42.20;;;;;;6245655;23;20465;-51
2022/08/30 10:39:35;;;;;;;7.53;6.93;;;34.60;42.50;;;;;;6241242;23;20493;-51
2022/08/30 10:42:06;;;;;;;7.40;6.80;;;34.90;43.50;;;;;;6243319;23;20639;-46
2022/08/30 10:44:39;;;;;;;8.20;7.60;;;34.80;41.30;;;;;;6239166;23;20427;-47
2022/08/30 10:47:25;;;;;;;7.93;7.20;;;34.50;41.90;;;;;;6241717;23;20424;-49
2022/08/30 10:49:56;;;;;;;7.90;7.30;;;34.00;41.80;;;;;;6243327;23;20351;-47
2022/08/30 10:52:34;;;;;;;7.63;7.03;;;33.50;41.90;;;;;;6243273;23;20750;-47
2022/08/30 10:55:10;;;;;;;6.60;6.20;;;33.30;43.10;;;;;;6246736;23;20330;-47
2022/08/30 10:57:37;;;;;;;6.70;6.10;;;32.90;43.20;;;;;;6243729;23;20624;-48
2022/08/30 11:00:15;;;;;;;6.53;6.07;;;33.20;43.90;;;;;;6244971;23;20374;-47
2022/08/30 11:03:01;;;;;;;6.50;5.90;;;33.80;41.80;;;;;;6245846;23;20361;-45
2022/08/30 11:05:40;;;;;;;6.93;6.40;;;33.90;39.80;;;;;;6245833;23;20494;-48
2022/08/30 11:08:27;;;;;;;6.70;6.20;;;33.80;40.70;;;;;;6245639;23;20382;-48
2022/08/30 11:11:11;;;;;;;6.80;6.30;;;33.50;39.90;;;;;;6245981;23;20350;-46
2022/08/30 11:13:40;;;;;;;7.00;6.40;;;33.20;41.10;;;;;;6244803;23;20415;-47
2022/08/30 11:16:14;;;;;;;6.70;6.20;;;33.10;42.40;;;;;;6248369;23;20402;-47
2022/08/30 11:18:43;;;;;;;7.10;6.53;;;33.60;42.40;;;;;;6245612;23;20373;-48
2022/08/30 11:21:30;;;;;;;8.40;7.73;;;34.50;41.80;;;;;;6246301;23;20365;-48
2022/08/30 11:24:18;;;;;;;6.63;6.13;;;34.30;41.50;;;;;;6245573;23;20353;-50
2022/08/30 11:26:44;;;;;;;8.00;7.50;;;34.20;42.40;;;;;;6232553;23;20443;-49
2022/08/30 11:29:31;;;;;;;7.40;6.80;;;34.40;42.50;;;;;;6245860;23;20420;-48
2022/08/30 11:31:58;;;;;;;7.30;6.70;;;35.10;42.40;;;;;;6245529;22;20157;-47
2022/08/30 11:34:46;;;;;;;7.70;7.00;;;35.10;39.90;;;;;;6244518;23;20467;-51
2022/08/30 11:37:39;;;;;;;7.67;7.10;;;34.30;40.10;;;;;;6245798;23;20369;-47
2022/08/30 11:40:23;;;;;;;8.30;7.50;;;34.00;40.50;;;;;;6244060;23;20546;-48
2022/08/30 11:42:53;;;;;;;7.50;6.87;;;33.70;40.90;;;;;;6243197;23;20427;-49
2022/08/30 11:45:22;;;;;;;7.53;6.93;;;33.60;41.30;;;;;;6243457;23;20568;-49
2022/08/30 11:47:52;;;;;;;7.57;6.97;;;33.80;41.40;;;;;;6245700;23;20998;-48
2022/08/30 11:50:24;;;;;;;7.40;6.67;;;33.60;41.60;;;;;;6245867;23;20396;-46
2022/08/30 11:52:58;;;;;;;7.90;7.23;;;33.30;41.90;;;;;;6246851;23;20363;-44
2022/08/30 11:55:43;;;;;;;8.10;7.50;;;32.90;42.00;;;;;;6248542;23;20355;-48
2022/08/30 11:58:29;;;;;;;8.80;7.10;;;32.40;42.40;;;;;;6245330;23;20943;-46
2022/08/30 12:01:19;;;;;;;7.67;7.07;;;31.90;43.00;;;;;;6243399;23;20369;-45
2022/08/30 12:04:03;;;;;;;8.47;7.87;;;31.70;44.40;;;;;;6244230;23;20381;-46
2022/08/30 12:07:03;;;;;;;8.27;7.67;;;31.90;43.90;;;;;;6245632;23;20485;-47
2022/08/30 12:09:29;;;;;;;8.10;7.30;;;32.50;44.40;;;;;;6240239;22;20333;-55
2022/08/30 12:12:31;;;;;;;8.37;7.60;;;33.00;43.70;;;;;;6241057;23;20582;-48
2022/08/30 12:14:57;;;;;;;7.80;7.10;;;33.50;43.30;;;;;;6238379;23;20405;-50
2022/08/30 12:20:36;;;;;;;10.63;7.47;;;34.10;42.80;;;;;;6241194;23;20244;-46
2022/08/30 12:23:32;;;;;;;8.33;7.53;;;34.30;41.00;;;;;;6240851;23;20342;-47
2022/08/30 12:26:25;;;;;;;10.47;8.03;;;34.00;42.00;;;;;;6211197;23;20484;-47
2022/08/30 12:29:06;;;;;;;7.33;6.83;;;33.80;42.70;;;;;;6243363;23;20666;-47
2022/08/30 12:31:32;;;;;;;7.20;6.60;;;33.50;41.50;;;;;;6245029;22;20331;-48
2022/08/30 12:34:02;;;;;;;8.00;7.30;;;32.90;42.90;;;;;;6242947;23;20387;-47
2022/08/30 12:36:41;;;;;;;7.03;6.53;;;32.90;42.70;;;;;;6240608;22;20282;-48
2022/08/30 12:39:16;;;;;;;8.17;7.47;;;32.80;42.40;;;;;;6242853;23;20356;-49
2022/08/30 12:41:43;;;;;;;8.33;7.73;;;32.70;42.80;;;;;;6240841;23;20450;-47
2022/08/30 12:44:19;;;;;;;8.40;7.70;;;32.50;42.50;;;;;;6241262;23;20332;-51
2022/08/30 12:46:48;;;;;;;7.93;7.40;;;32.40;42.80;;;;;;6212940;23;20504;-48
2022/08/30 12:49:15;;;;;;;7.20;6.70;;;32.10;41.60;;;;;;6239403;23;20334;-48
2022/08/30 12:51:42;;;;;;;7.00;6.50;;;32.00;42.90;;;;;;6238867;23;20584;-51
2022/08/30 12:54:20;;;;;;;7.83;7.17;;;32.40;42.60;;;;;;6241481;23;20410;-48
2022/08/30 12:56:49;;;;;;;7.90;7.20;;;33.20;42.80;;;;;;6242834;23;20785;-46
2022/08/30 12:59:37;;;;;;;7.93;7.33;;;33.80;41.70;;;;;;6243336;23;20388;-47
2022/08/30 13:02:12;;;;;;;7.67;7.07;;;34.10;40.60;;;;;;6242883;23;20351;-48
2022/08/30 13:04:38;;;;;;;8.60;7.90;;;34.40;40.00;;;;;;6238832;23;20478;-46
2022/08/30 13:07:04;;;;;;;7.73;7.13;;;34.20;39.70;;;;;;6234934;23;20428;-49